Time,TemperatureF,DewpointF,PressureIn,WindDirection,WindDirectionDegrees,WindSpeedMPH,WindSpeedGustMPH,Humidity,HourlyPrecipIn,Conditions,Clouds,dailyrainin,SoftwareType,DateUTC
2013-01-04 00:02:00,25.0,23.5,30.29,NNW,338,1.0,2.0,94,0.00,,,0.00,meteohub,2013-01-04 05:02:00,
2013-01-04 00:05:00,24.8,23.4,30.29,NNW,338,1.0,2.0,94,0.00,,,0.00,meteohub,2013-01-04 05:05:00,
2013-01-04 00:11:00,24.8,23.4,30.28,NNW,338,1.0,2.0,94,0.00,,,0.00,meteohub,2013-01-04 05:11:00,
2013-01-04 00:17:00,24.8,23.4,30.28,NNW,338,0.0,2.0,94,0.00,,,0.00,meteohub,2013-01-04 05:17:00,
2013-01-04 00:22:00,24.6,23.2,30.28,NNW,338,0.0,2.0,94,0.00,,,0.00,meteohub,2013-01-04 05:22:00,
2013-01-04 00:27:00,24.6,23.2,30.28,NNW,338,0.0,2.0,94,0.00,,,0.00,meteohub,2013-01-04 05:27:00,
2013-01-04 00:32:00,24.6,23.2,30.28,NNW,338,2.0,2.0,94,0.00,,,0.00,meteohub,2013-01-04 05:32:00,
2013-01-04 00:37:00,24.4,23.0,30.28,NNW,338,1.0,2.0,94,0.00,,,0.00,meteohub,2013-01-04 05:37:00,
2013-01-04 00:42:00,24.4,23.0,30.28,NNW,338,2.0,2.0,94,0.00,,,0.00,meteohub,2013-01-04 05:42:00,
2013-01-04 00:47:00,24.3,22.8,30.28,NNW,338,1.0,2.0,94,0.00,,,0.00,meteohub,2013-01-04 05:47:00,
2013-01-04 00:52:00,24.3,22.8,30.28,NNW,338,0.0,2.0,94,0.00,,,0.00,meteohub,2013-01-04 05:52:00,
2013-01-04 00:57:00,24.3,22.8,30.27,NNW,338,0.0,2.0,94,0.00,,,0.00,meteohub,2013-01-04 05:57:00,
2013-01-04 01:02:00,24.3,22.8,30.27,NNW,338,0.0,1.0,94,0.00,,,0.00,meteohub,2013-01-04 06:02:00,
2013-01-04 01:09:00,24.3,22.8,30.27,NNW,338,2.0,2.0,94,0.00,,,0.00,meteohub,2013-01-04 06:09:00,
2013-01-04 01:15:00,24.1,22.6,30.27,NNW,338,0.0,2.0,94,0.00,,,0.00,meteohub,2013-01-04 06:15:00,
2013-01-04 01:21:00,24.1,22.6,30.27,NNW,338,2.0,2.0,94,0.00,,,0.00,meteohub,2013-01-04 06:21:00,
2013-01-04 01:27:00,24.1,22.6,30.27,NNW,338,2.0,2.0,94,0.00,,,0.00,meteohub,2013-01-04 06:27:00,
2013-01-04 01:32:00,24.1,22.6,30.27,NNW,338,1.0,2.0,94,0.00,,,0.00,meteohub,2013-01-04 06:32:00,
2013-01-04 01:37:00,23.9,22.5,30.28,NNW,338,1.0,2.0,94,0.00,,,0.00,meteohub,2013-01-04 06:37:00,
2013-01-04 01:42:00,23.9,22.5,30.28,NNW,338,1.0,2.0,94,0.00,,,0.00,meteohub,2013-01-04 06:42:00,
2013-01-04 01:48:00,23.7,22.3,30.27,NNW,338,0.0,1.0,94,0.00,,,0.00,meteohub,2013-01-04 06:48:00,
2013-01-04 01:54:00,23.7,22.3,30.28,NNW,338,2.0,2.0,94,0.00,,,0.00,meteohub,2013-01-04 06:54:00,
2013-01-04 02:00:00,23.7,22.3,30.28,NNW,338,1.0,2.0,94,0.00,,,0.00,meteohub,2013-01-04 07:00:00,
2013-01-04 02:06:00,23.7,22.3,30.28,NNW,338,0.0,2.0,94,0.00,,,0.00,meteohub,2013-01-04 07:06:00,
2013-01-04 02:12:00,23.5,22.1,30.29,NNW,338,1.0,2.0,94,0.00,,,0.00,meteohub,2013-01-04 07:12:00,
2013-01-04 02:17:00,23.5,22.1,30.29,NNW,338,2.0,2.0,94,0.00,,,0.00,meteohub,2013-01-04 07:17:00,
2013-01-04 02:22:00,23.5,22.1,30.29,NNW,338,1.0,2.0,94,0.00,,,0.00,meteohub,2013-01-04 07:22:00,
2013-01-04 02:27:00,23.4,21.9,30.30,NNW,338,0.0,2.0,94,0.00,,,0.00,meteohub,2013-01-04 07:27:00,
2013-01-04 02:32:00,23.4,21.9,30.30,NNW,338,0.0,2.0,94,0.00,,,0.00,meteohub,2013-01-04 07:32:00,
2013-01-04 02:37:00,23.5,22.1,30.30,NNW,338,1.0,1.0,94,0.00,,,0.00,meteohub,2013-01-04 07:37:00,
2013-01-04 02:42:00,23.7,22.3,30.30,NNW,338,1.0,1.0,94,0.00,,,0.00,meteohub,2013-01-04 07:42:00,
2013-01-04 02:47:00,23.9,22.5,30.31,SW,225,1.0,2.0,94,0.00,,,0.00,meteohub,2013-01-04 07:47:00,
2013-01-04 02:52:00,23.7,22.3,30.31,SW,225,2.0,2.0,94,0.00,,,0.00,meteohub,2013-01-04 07:52:00,
2013-01-04 02:57:00,23.5,22.1,30.31,SW,225,2.0,2.0,94,0.00,,,0.00,meteohub,2013-01-04 07:57:00,
2013-01-04 03:03:00,23.7,22.3,30.30,SW,225,1.0,2.0,94,0.00,,,0.00,meteohub,2013-01-04 08:03:00,
2013-01-04 03:09:00,23.7,22.5,30.30,SW,225,1.0,2.0,95,0.00,,,0.00,meteohub,2013-01-04 08:09:00,
2013-01-04 03:15:00,23.9,22.5,30.30,SW,225,2.0,2.0,94,0.00,,,0.00,meteohub,2013-01-04 08:15:00,
2013-01-04 03:21:00,23.9,22.5,30.30,SW,225,2.0,2.0,94,0.00,,,0.00,meteohub,2013-01-04 08:21:00,
2013-01-04 03:27:00,23.9,22.6,30.30,SW,225,2.0,2.0,95,0.00,,,0.00,meteohub,2013-01-04 08:27:00,
2013-01-04 03:32:00,23.9,22.6,30.30,SW,225,1.0,2.0,95,0.00,,,0.00,meteohub,2013-01-04 08:32:00,
2013-01-04 03:37:00,23.7,22.5,30.30,SW,225,0.0,2.0,95,0.00,,,0.00,meteohub,2013-01-04 08:37:00,
2013-01-04 03:42:00,23.7,22.5,30.30,SW,225,2.0,2.0,95,0.00,,,0.00,meteohub,2013-01-04 08:42:00,
2013-01-04 03:47:00,23.7,22.5,30.30,SW,225,0.0,2.0,95,0.00,,,0.00,meteohub,2013-01-04 08:47:00,
2013-01-04 03:52:00,23.7,22.5,30.30,SW,225,0.0,2.0,95,0.00,,,0.00,meteohub,2013-01-04 08:52:00,
2013-01-04 03:57:00,23.5,22.1,30.29,SW,225,1.0,2.0,94,0.00,,,0.00,meteohub,2013-01-04 08:57:00,
2013-01-04 04:05:00,23.5,22.3,30.29,SW,225,2.0,2.0,95,0.00,,,0.00,meteohub,2013-01-04 09:05:00,
2013-01-04 04:11:00,23.7,22.5,30.29,SW,225,1.0,2.0,95,0.00,,,0.00,meteohub,2013-01-04 09:11:00,
2013-01-04 04:17:00,23.5,22.3,30.29,SW,225,0.0,2.0,95,0.00,,,0.00,meteohub,2013-01-04 09:17:00,
2013-01-04 04:22:00,23.5,22.1,30.29,SW,225,1.0,2.0,94,0.00,,,0.00,meteohub,2013-01-04 09:22:00,
2013-01-04 04:27:00,23.4,22.1,30.29,SW,225,0.0,1.0,95,0.00,,,0.00,meteohub,2013-01-04 09:27:00,
2013-01-04 04:32:00,23.2,21.7,30.29,SW,225,2.0,2.0,94,0.00,,,0.00,meteohub,2013-01-04 09:32:00,
2013-01-04 04:37:00,23.2,21.7,30.29,SW,225,2.0,2.0,94,0.00,,,0.00,meteohub,2013-01-04 09:37:00,
2013-01-04 04:42:00,23.2,21.7,30.29,SW,225,2.0,2.0,94,0.00,,,0.00,meteohub,2013-01-04 09:42:00,
2013-01-04 04:47:00,23.0,21.6,30.29,SW,225,0.0,2.0,94,0.00,,,0.00,meteohub,2013-01-04 09:47:00,
2013-01-04 04:52:00,22.6,21.2,30.29,SW,225,1.0,2.0,94,0.00,,,0.00,meteohub,2013-01-04 09:52:00,
2013-01-04 04:57:00,22.5,21.0,30.30,SW,225,0.0,2.0,94,0.00,,,0.00,meteohub,2013-01-04 09:57:00,
2013-01-04 05:02:00,22.5,21.0,30.29,SW,225,1.0,1.0,94,0.00,,,0.00,meteohub,2013-01-04 10:02:00,
2013-01-04 05:07:00,22.3,20.8,30.30,SW,225,1.0,1.0,94,0.00,,,0.00,meteohub,2013-01-04 10:07:00,
2013-01-04 05:14:00,22.3,20.8,30.30,SW,225,1.0,2.0,94,0.00,,,0.00,meteohub,2013-01-04 10:14:00,
2013-01-04 05:20:00,22.3,20.8,30.30,SW,225,1.0,2.0,94,0.00,,,0.00,meteohub,2013-01-04 10:20:00,
2013-01-04 05:26:00,22.3,20.8,30.30,SW,225,1.0,2.0,94,0.00,,,0.00,meteohub,2013-01-04 10:26:00,
2013-01-04 05:32:00,22.1,20.7,30.30,SW,225,1.0,2.0,94,0.00,,,0.00,meteohub,2013-01-04 10:32:00,
2013-01-04 05:37:00,21.7,20.3,30.30,SW,225,1.0,2.0,94,0.00,,,0.00,meteohub,2013-01-04 10:37:00,
2013-01-04 05:42:00,21.7,20.3,30.30,SW,225,2.0,2.0,94,0.00,,,0.00,meteohub,2013-01-04 10:42:00,
2013-01-04 05:47:00,21.7,20.3,30.30,SW,225,1.0,2.0,94,0.00,,,0.00,meteohub,2013-01-04 10:47:00,
2013-01-04 05:52:00,21.7,20.3,30.29,SW,225,1.0,2.0,94,0.00,,,0.00,meteohub,2013-01-04 10:52:00,
2013-01-04 05:57:00,21.6,20.1,30.30,SW,225,1.0,2.0,94,0.00,,,0.00,meteohub,2013-01-04 10:57:00,
2013-01-04 06:02:00,21.6,20.1,30.30,SW,225,1.0,2.0,94,0.00,,,0.00,meteohub,2013-01-04 11:02:00,
2013-01-04 06:08:00,21.7,20.3,30.30,SW,225,1.0,2.0,94,0.00,,,0.00,meteohub,2013-01-04 11:08:00,
2013-01-04 06:14:00,21.7,20.3,30.30,SW,225,1.0,2.0,94,0.00,,,0.00,meteohub,2013-01-04 11:14:00,
2013-01-04 06:20:00,21.6,20.1,30.30,SW,225,1.0,2.0,94,0.00,,,0.00,meteohub,2013-01-04 11:20:00,
2013-01-04 06:27:00,21.7,20.3,30.30,SW,225,0.0,2.0,94,0.00,,,0.00,meteohub,2013-01-04 11:27:00,
2013-01-04 06:33:00,21.6,20.1,30.30,SW,225,1.0,1.0,94,0.00,,,0.00,meteohub,2013-01-04 11:33:00,
2013-01-04 06:39:00,21.6,20.1,30.30,SW,225,1.0,2.0,94,0.00,,,0.00,meteohub,2013-01-04 11:39:00,
2013-01-04 06:45:00,21.6,20.1,30.30,SW,225,1.0,2.0,94,0.00,,,0.00,meteohub,2013-01-04 11:45:00,
2013-01-04 06:51:00,21.6,20.3,30.30,SW,225,1.0,2.0,95,0.00,,,0.00,meteohub,2013-01-04 11:51:00,
2013-01-04 06:57:00,21.4,19.9,30.31,SW,225,1.0,2.0,94,0.00,,,0.00,meteohub,2013-01-04 11:57:00,
2013-01-04 07:03:00,21.4,19.9,30.30,SW,225,0.0,2.0,94,0.00,,,0.00,meteohub,2013-01-04 12:03:00,
2013-01-04 07:09:00,21.2,19.8,30.31,SW,225,2.0,2.0,94,0.00,,,0.00,meteohub,2013-01-04 12:09:00,
2013-01-04 07:15:00,21.2,19.8,30.31,SW,225,1.0,2.0,94,0.00,,,0.00,meteohub,2013-01-04 12:15:00,
2013-01-04 07:21:00,21.2,19.8,30.31,SW,225,2.0,2.0,94,0.00,,,0.00,meteohub,2013-01-04 12:21:00,
2013-01-04 07:27:00,21.2,19.8,30.31,SW,225,1.0,2.0,94,0.00,,,0.00,meteohub,2013-01-04 12:27:00,
2013-01-04 07:32:00,21.0,19.6,30.31,SW,225,0.0,2.0,94,0.00,,,0.00,meteohub,2013-01-04 12:32:00,
2013-01-04 07:37:00,20.8,19.4,30.31,SW,225,1.0,2.0,94,0.00,,,0.00,meteohub,2013-01-04 12:37:00,
2013-01-04 07:42:00,21.0,19.6,30.31,SW,225,0.0,2.0,94,0.00,,,0.00,meteohub,2013-01-04 12:42:00,
2013-01-04 07:48:00,21.0,19.6,30.31,SW,225,1.0,2.0,94,0.00,,,0.00,meteohub,2013-01-04 12:48:00,
2013-01-04 07:54:00,20.8,19.4,30.31,SW,225,0.0,2.0,94,0.00,,,0.00,meteohub,2013-01-04 12:54:00,
2013-01-04 08:00:00,21.0,19.6,30.31,SW,225,1.0,2.0,94,0.00,,,0.00,meteohub,2013-01-04 13:00:00,
2013-01-04 08:06:00,21.2,19.9,30.31,SW,225,1.0,1.0,95,0.00,,,0.00,meteohub,2013-01-04 13:06:00,
2013-01-04 08:12:00,21.6,20.1,30.32,SW,225,0.0,2.0,94,0.00,,,0.00,meteohub,2013-01-04 13:12:00,
2013-01-04 08:17:00,21.9,20.7,30.31,SW,225,1.0,2.0,95,0.00,,,0.00,meteohub,2013-01-04 13:17:00,
2013-01-04 08:22:00,22.3,21.0,30.31,SW,225,1.0,2.0,95,0.00,,,0.00,meteohub,2013-01-04 13:22:00,
2013-01-04 08:27:00,22.8,21.6,30.31,SW,225,1.0,2.0,95,0.00,,,0.00,meteohub,2013-01-04 13:27:00,
2013-01-04 08:34:00,23.4,22.1,30.32,SW,225,1.0,2.0,95,0.00,,,0.00,meteohub,2013-01-04 13:34:00,
2013-01-04 08:40:00,23.9,22.6,30.32,SW,225,1.0,2.0,95,0.00,,,0.00,meteohub,2013-01-04 13:40:00,
2013-01-04 08:46:00,24.6,23.4,30.32,SW,225,2.0,2.0,95,0.00,,,0.00,meteohub,2013-01-04 13:46:00,
2013-01-04 08:52:00,25.7,24.4,30.32,SW,225,1.0,2.0,95,0.00,,,0.00,meteohub,2013-01-04 13:52:00,
2013-01-04 08:57:00,27.0,26.1,30.33,SW,225,0.0,2.0,96,0.00,,,0.00,meteohub,2013-01-04 13:57:00,
2013-01-04 09:02:00,28.0,27.0,30.33,SW,225,0.0,2.0,96,0.00,,,0.00,meteohub,2013-01-04 14:02:00,
2013-01-04 09:07:00,28.9,27.9,30.33,SW,225,1.0,2.0,96,0.00,,,0.00,meteohub,2013-01-04 14:07:00,
2013-01-04 09:12:00,30.0,28.9,30.33,SW,225,0.0,1.0,96,0.00,,,0.00,meteohub,2013-01-04 14:12:00,
2013-01-04 09:17:00,30.9,29.8,30.33,SW,225,1.0,2.0,96,0.00,,,0.00,meteohub,2013-01-04 14:17:00,
2013-01-04 09:22:00,31.6,30.6,30.32,NW,315,2.0,2.0,96,0.00,,,0.00,meteohub,2013-01-04 14:22:00,
2013-01-04 09:27:00,32.2,30.9,30.33,SW,225,1.0,2.0,95,0.00,,,0.00,meteohub,2013-01-04 14:27:00,
2013-01-04 09:32:00,32.7,31.5,30.33,South,180,2.0,2.0,95,0.00,,,0.00,meteohub,2013-01-04 14:32:00,
2013-01-04 09:37:00,33.3,31.1,30.33,North,0,2.0,3.0,92,0.00,,,0.00,meteohub,2013-01-04 14:37:00,
2013-01-04 09:42:00,33.6,31.3,30.33,SW,225,3.0,3.0,91,0.00,,,0.00,meteohub,2013-01-04 14:42:00,
2013-01-04 09:47:00,34.7,30.7,30.33,North,0,2.0,4.0,85,0.00,,,0.00,meteohub,2013-01-04 14:47:00,
2013-01-04 09:52:00,35.4,31.1,30.32,NE,45,2.0,5.0,84,0.00,,,0.00,meteohub,2013-01-04 14:52:00,
2013-01-04 09:57:00,36.1,31.5,30.32,South,180,2.0,5.0,83,0.00,,,0.00,meteohub,2013-01-04 14:57:00,
2013-01-04 10:02:00,37.0,31.1,30.32,NW,315,4.0,5.0,79,0.00,,,0.00,meteohub,2013-01-04 15:02:00,
2013-01-04 10:07:00,37.8,30.6,30.32,East,90,4.0,5.0,75,0.00,,,0.00,meteohub,2013-01-04 15:07:00,
2013-01-04 10:12:00,38.1,30.6,30.32,NW,315,3.0,6.0,74,0.00,,,0.00,meteohub,2013-01-04 15:12:00,
2013-01-04 10:17:00,38.7,30.0,30.33,North,0,5.0,6.0,71,0.00,,,0.00,meteohub,2013-01-04 15:17:00,
2013-01-04 10:22:00,39.0,30.4,30.33,West,270,4.0,5.0,71,0.00,,,0.00,meteohub,2013-01-04 15:22:00,
2013-01-04 10:27:00,39.4,30.7,30.33,NW,315,4.0,5.0,71,0.00,,,0.00,meteohub,2013-01-04 15:27:00,
2013-01-04 10:32:00,39.9,30.2,30.33,South,180,1.0,5.0,68,0.00,,,0.00,meteohub,2013-01-04 15:32:00,
2013-01-04 10:37:00,40.5,30.7,30.33,North,0,3.0,5.0,68,0.00,,,0.00,meteohub,2013-01-04 15:37:00,
2013-01-04 10:43:00,41.0,30.6,30.32,NW,315,6.0,6.0,66,0.00,,,0.00,meteohub,2013-01-04 15:43:00,
2013-01-04 10:49:00,40.8,28.8,30.33,SW,225,4.0,6.0,62,0.00,,,0.00,meteohub,2013-01-04 15:49:00,
2013-01-04 10:55:00,41.4,30.0,30.33,NE,45,8.0,8.0,64,0.00,,,0.00,meteohub,2013-01-04 15:55:00,
2013-01-04 11:01:00,41.9,28.9,30.32,SW,225,7.0,8.0,60,0.00,,,0.00,meteohub,2013-01-04 16:01:00,
2013-01-04 11:07:00,42.4,30.0,30.33,NW,315,2.0,8.0,61,0.00,,,0.00,meteohub,2013-01-04 16:07:00,
2013-01-04 11:12:00,42.6,27.5,30.32,NW,315,8.0,8.0,55,0.00,,,0.00,meteohub,2013-01-04 16:12:00,
2013-01-04 11:17:00,42.6,28.0,30.32,South,180,2.0,8.0,56,0.00,,,0.00,meteohub,2013-01-04 16:17:00,
2013-01-04 11:22:00,42.8,27.7,30.32,SW,225,4.0,8.0,55,0.00,,,0.00,meteohub,2013-01-04 16:22:00,
2013-01-04 11:27:00,43.0,27.5,30.32,NW,315,3.0,8.0,54,0.00,,,0.00,meteohub,2013-01-04 16:27:00,
2013-01-04 11:32:00,43.2,26.2,30.31,West,270,7.0,7.0,51,0.00,,,0.00,meteohub,2013-01-04 16:32:00,
2013-01-04 11:37:00,43.3,25.9,30.31,NNW,338,5.0,10.0,50,0.00,,,0.00,meteohub,2013-01-04 16:37:00,
2013-01-04 11:42:00,43.5,27.1,30.30,North,0,4.0,10.0,52,0.00,,,0.00,meteohub,2013-01-04 16:42:00,
2013-01-04 11:47:00,43.9,26.4,30.30,SE,135,4.0,10.0,50,0.00,,,0.00,meteohub,2013-01-04 16:47:00,
2013-01-04 11:52:00,44.2,25.7,30.29,North,0,8.0,10.0,48,0.00,,,0.00,meteohub,2013-01-04 16:52:00,
2013-01-04 11:57:00,44.4,25.5,30.28,NE,45,6.0,8.0,47,0.00,,,0.00,meteohub,2013-01-04 16:57:00,
2013-01-04 12:02:00,44.6,25.2,30.28,NW,315,10.0,10.0,46,0.00,,,0.00,meteohub,2013-01-04 17:02:00,
2013-01-04 12:07:00,45.0,25.0,30.27,NW,315,7.0,10.0,45,0.00,,,0.00,meteohub,2013-01-04 17:07:00,
2013-01-04 12:12:00,45.1,24.4,30.27,West,270,4.0,10.0,44,0.00,,,0.00,meteohub,2013-01-04 17:12:00,
2013-01-04 12:17:00,45.7,25.0,30.26,West,270,4.0,10.0,44,0.00,,,0.00,meteohub,2013-01-04 17:17:00,
2013-01-04 12:22:00,46.4,25.2,30.25,South,180,4.0,7.0,43,0.00,,,0.00,meteohub,2013-01-04 17:22:00,
2013-01-04 12:27:00,46.4,23.9,30.26,SW,225,4.0,7.0,41,0.00,,,0.00,meteohub,2013-01-04 17:27:00,
2013-01-04 12:32:00,46.6,24.1,30.25,NW,315,5.0,7.0,41,0.00,,,0.00,meteohub,2013-01-04 17:32:00,
2013-01-04 12:38:00,46.9,23.2,30.25,South,180,4.0,8.0,39,0.00,,,0.00,meteohub,2013-01-04 17:38:00,
2013-01-04 12:44:00,47.1,24.1,30.25,West,270,7.0,8.0,40,0.00,,,0.00,meteohub,2013-01-04 17:44:00,
2013-01-04 12:50:00,47.7,24.4,30.24,South,180,3.0,10.0,40,0.00,,,0.00,meteohub,2013-01-04 17:50:00,
2013-01-04 12:56:00,47.7,22.6,30.24,North,0,4.0,10.0,37,0.00,,,0.00,meteohub,2013-01-04 17:56:00,
2013-01-04 13:02:00,47.3,21.7,30.24,South,180,5.0,10.0,36,0.00,,,0.00,meteohub,2013-01-04 18:02:00,
2013-01-04 13:07:00,47.5,23.2,30.24,North,0,5.0,10.0,38,0.00,,,0.00,meteohub,2013-01-04 18:07:00,
2013-01-04 13:12:00,47.8,22.8,30.23,SE,135,3.0,10.0,37,0.00,,,0.00,meteohub,2013-01-04 18:12:00,
2013-01-04 13:17:00,48.0,22.3,30.23,NW,315,8.0,8.0,36,0.00,,,0.00,meteohub,2013-01-04 18:17:00,
2013-01-04 13:22:00,48.0,22.3,30.23,South,180,3.0,8.0,36,0.00,,,0.00,meteohub,2013-01-04 18:22:00,
2013-01-04 13:27:00,47.8,21.6,30.23,East,90,5.0,8.0,35,0.00,,,0.00,meteohub,2013-01-04 18:27:00,
2013-01-04 13:32:00,48.4,23.4,30.23,South,180,2.0,9.0,37,0.00,,,0.00,meteohub,2013-01-04 18:32:00,
2013-01-04 13:37:00,48.9,23.7,30.22,NW,315,6.0,9.0,37,0.00,,,0.00,meteohub,2013-01-04 18:37:00,
2013-01-04 13:42:00,48.9,21.7,30.22,South,180,8.0,9.0,34,0.00,,,0.00,meteohub,2013-01-04 18:42:00,
2013-01-04 13:47:00,48.6,21.4,30.22,South,180,3.0,8.0,34,0.00,,,0.00,meteohub,2013-01-04 18:47:00,
2013-01-04 13:52:00,48.7,22.3,30.22,North,0,5.0,8.0,35,0.00,,,0.00,meteohub,2013-01-04 18:52:00,
2013-01-04 13:57:00,48.6,21.4,30.22,NNW,338,6.0,12.0,34,0.00,,,0.00,meteohub,2013-01-04 18:57:00,
2013-01-04 14:02:00,48.4,21.4,30.22,West,270,4.0,12.0,34,0.00,,,0.00,meteohub,2013-01-04 19:02:00,
2013-01-04 14:09:00,48.7,20.8,30.21,SW,225,5.0,12.0,33,0.00,,,0.00,meteohub,2013-01-04 19:09:00,
2013-01-04 14:15:00,48.4,20.7,30.21,West,270,2.0,8.0,33,0.00,,,0.00,meteohub,2013-01-04 19:15:00,
2013-01-04 14:21:00,47.8,20.1,30.21,North,0,4.0,7.0,33,0.00,,,0.00,meteohub,2013-01-04 19:21:00,
2013-01-04 14:27:00,47.7,20.7,30.22,West,270,2.0,9.0,34,0.00,,,0.00,meteohub,2013-01-04 19:27:00,
2013-01-04 14:32:00,48.2,21.2,30.21,WSW,248,6.0,10.0,34,0.00,,,0.00,meteohub,2013-01-04 19:32:00,
2013-01-04 14:37:00,48.2,21.2,30.21,NE,45,4.0,10.0,34,0.00,,,0.00,meteohub,2013-01-04 19:37:00,
2013-01-04 14:42:00,48.2,21.2,30.21,NE,45,3.0,10.0,34,0.00,,,0.00,meteohub,2013-01-04 19:42:00,
2013-01-04 14:47:00,48.6,21.4,30.21,NW,315,2.0,7.0,34,0.00,,,0.00,meteohub,2013-01-04 19:47:00,
2013-01-04 14:52:00,49.1,21.9,30.21,SW,225,3.0,7.0,34,0.00,,,0.00,meteohub,2013-01-04 19:52:00,
2013-01-04 14:57:00,49.1,20.5,30.20,NW,315,3.0,7.0,32,0.00,,,0.00,meteohub,2013-01-04 19:57:00,
2013-01-04 15:03:00,48.6,20.8,30.20,West,270,3.0,7.0,33,0.00,,,0.00,meteohub,2013-01-04 20:03:00,
2013-01-04 15:09:00,48.4,21.4,30.20,North,0,2.0,13.0,34,0.00,,,0.00,meteohub,2013-01-04 20:09:00,
2013-01-04 15:15:00,48.4,21.4,30.20,North,0,3.0,5.0,34,0.00,,,0.00,meteohub,2013-01-04 20:15:00,
2013-01-04 15:21:00,48.2,19.8,30.20,NE,45,4.0,8.0,32,0.00,,,0.00,meteohub,2013-01-04 20:21:00,
2013-01-04 15:27:00,48.0,20.3,30.20,SW,225,3.0,8.0,33,0.00,,,0.00,meteohub,2013-01-04 20:27:00,
2013-01-04 15:32:00,48.6,20.8,30.20,East,90,4.0,8.0,33,0.00,,,0.00,meteohub,2013-01-04 20:32:00,
2013-01-04 15:37:00,48.4,20.7,30.20,South,180,2.0,8.0,33,0.00,,,0.00,meteohub,2013-01-04 20:37:00,
2013-01-04 15:42:00,48.2,19.0,30.20,West,270,4.0,4.0,31,0.00,,,0.00,meteohub,2013-01-04 20:42:00,
2013-01-04 15:47:00,47.8,18.7,30.20,SW,225,4.0,6.0,31,0.00,,,0.00,meteohub,2013-01-04 20:47:00,
2013-01-04 15:52:00,47.5,19.8,30.21,WSW,248,4.0,6.0,33,0.00,,,0.00,meteohub,2013-01-04 20:52:00,
2013-01-04 15:57:00,47.3,19.6,30.21,North,0,3.0,6.0,33,0.00,,,0.00,meteohub,2013-01-04 20:57:00,
2013-01-04 16:02:00,47.1,20.1,30.21,North,0,2.0,5.0,34,0.00,,,0.00,meteohub,2013-01-04 21:02:00,
2013-01-04 16:07:00,47.1,20.1,30.21,West,270,2.0,4.0,34,0.00,,,0.00,meteohub,2013-01-04 21:07:00,
2013-01-04 16:12:00,46.9,20.7,30.21,NE,45,2.0,4.0,35,0.00,,,0.00,meteohub,2013-01-04 21:12:00,
2013-01-04 16:17:00,46.9,21.4,30.22,SE,135,5.0,5.0,36,0.00,,,0.00,meteohub,2013-01-04 21:17:00,
2013-01-04 16:22:00,47.1,19.4,30.22,WNW,293,5.0,5.0,33,0.00,,,0.00,meteohub,2013-01-04 21:22:00,
2013-01-04 16:27:00,47.5,20.5,30.22,West,270,2.0,8.0,34,0.00,,,0.00,meteohub,2013-01-04 21:27:00,
2013-01-04 16:32:00,47.7,20.7,30.21,NW,315,5.0,8.0,34,0.00,,,0.00,meteohub,2013-01-04 21:32:00,
2013-01-04 16:37:00,47.5,20.5,30.21,South,180,2.0,8.0,34,0.00,,,0.00,meteohub,2013-01-04 21:37:00,
2013-01-04 16:42:00,47.3,19.6,30.21,North,0,2.0,6.0,33,0.00,,,0.00,meteohub,2013-01-04 21:42:00,
2013-01-04 16:47:00,47.1,20.1,30.21,North,0,2.0,5.0,34,0.00,,,0.00,meteohub,2013-01-04 21:47:00,
2013-01-04 16:52:00,46.9,19.9,30.21,NW,315,5.0,5.0,34,0.00,,,0.00,meteohub,2013-01-04 21:52:00,
2013-01-04 16:57:00,46.8,20.5,30.21,North,0,2.0,5.0,35,0.00,,,0.00,meteohub,2013-01-04 21:57:00,
2013-01-04 17:02:00,46.6,20.3,30.21,SW,225,1.0,5.0,35,0.00,,,0.00,meteohub,2013-01-04 22:02:00,
2013-01-04 17:07:00,46.4,20.8,30.21,WSW,248,3.0,5.0,36,0.00,,,0.00,meteohub,2013-01-04 22:07:00,
2013-01-04 17:12:00,46.2,21.4,30.21,West,270,2.0,4.0,37,0.00,,,0.00,meteohub,2013-01-04 22:12:00,
2013-01-04 17:17:00,45.9,22.3,30.21,West,270,2.0,4.0,39,0.00,,,0.00,meteohub,2013-01-04 22:17:00,
2013-01-04 17:22:00,45.5,23.2,30.21,South,180,1.0,4.0,41,0.00,,,0.00,meteohub,2013-01-04 22:22:00,
2013-01-04 17:28:00,45.1,23.4,30.21,WSW,248,2.0,2.0,42,0.00,,,0.00,meteohub,2013-01-04 22:28:00,
2013-01-04 17:34:00,44.8,24.8,30.21,SW,225,2.0,2.0,45,0.00,,,0.00,meteohub,2013-01-04 22:34:00,
2013-01-04 17:40:00,44.1,25.7,30.21,WSW,248,1.0,2.0,48,0.00,,,0.00,meteohub,2013-01-04 22:40:00,
2013-01-04 17:46:00,43.7,25.7,30.21,East,90,2.0,2.0,49,0.00,,,0.00,meteohub,2013-01-04 22:46:00,
2013-01-04 17:52:00,43.3,27.0,30.21,SE,135,2.0,2.0,52,0.00,,,0.00,meteohub,2013-01-04 22:52:00,
2013-01-04 17:57:00,43.0,27.5,30.22,South,180,2.0,2.0,54,0.00,,,0.00,meteohub,2013-01-04 22:57:00,
2013-01-04 18:02:00,42.8,27.3,30.23,South,180,1.0,2.0,54,0.00,,,0.00,meteohub,2013-01-04 23:02:00,
2013-01-04 18:07:00,42.4,27.9,30.23,SW,225,2.0,2.0,56,0.00,,,0.00,meteohub,2013-01-04 23:07:00,
2013-01-04 18:12:00,42.4,27.9,30.23,SE,135,2.0,2.0,56,0.00,,,0.00,meteohub,2013-01-04 23:12:00,
2013-01-04 18:17:00,42.6,26.2,30.23,SE,135,2.0,2.0,52,0.00,,,0.00,meteohub,2013-01-04 23:17:00,
2013-01-04 18:22:00,43.2,25.7,30.24,West,270,2.0,2.0,50,0.00,,,0.00,meteohub,2013-01-04 23:22:00,
2013-01-04 18:27:00,43.9,25.0,30.24,SE,135,2.0,4.0,47,0.00,,,0.00,meteohub,2013-01-04 23:27:00,
2013-01-04 18:32:00,44.2,25.3,30.24,North,0,3.0,4.0,47,0.00,,,0.00,meteohub,2013-01-04 23:32:00,
2013-01-04 18:37:00,44.8,24.3,30.24,West,270,4.0,4.0,44,0.00,,,0.00,meteohub,2013-01-04 23:37:00,
2013-01-04 18:42:00,45.0,23.2,30.23,South,180,2.0,4.0,42,0.00,,,0.00,meteohub,2013-01-04 23:42:00,
2013-01-04 18:47:00,45.0,23.7,30.24,SE,135,2.0,4.0,43,0.00,,,0.00,meteohub,2013-01-04 23:47:00,
2013-01-04 18:52:00,44.6,24.1,30.23,SE,135,3.0,4.0,44,0.00,,,0.00,meteohub,2013-01-04 23:52:00,
2013-01-04 18:57:00,44.6,23.0,30.24,West,270,3.0,6.0,42,0.00,,,0.00,meteohub,2013-01-04 23:57:00,
2013-01-04 19:02:00,44.6,22.3,30.24,SW,225,2.0,6.0,41,0.00,,,0.00,meteohub,2013-01-05 00:02:00,
2013-01-04 19:07:00,44.8,21.9,30.24,West,270,2.0,6.0,40,0.00,,,0.00,meteohub,2013-01-05 00:07:00,
2013-01-04 19:12:00,44.8,21.9,30.25,NNW,338,3.0,5.0,40,0.00,,,0.00,meteohub,2013-01-05 00:12:00,
2013-01-04 19:17:00,44.8,21.9,30.25,SE,135,2.0,5.0,40,0.00,,,0.00,meteohub,2013-01-05 00:17:00,
2013-01-04 19:22:00,44.6,21.7,30.26,NE,45,1.0,4.0,40,0.00,,,0.00,meteohub,2013-01-05 00:22:00,
2013-01-04 19:27:00,44.2,21.4,30.26,NE,45,1.0,4.0,40,0.00,,,0.00,meteohub,2013-01-05 00:27:00,
2013-01-04 19:32:00,43.5,20.8,30.26,East,90,2.0,2.0,40,0.00,,,0.00,meteohub,2013-01-05 00:32:00,
2013-01-04 19:37:00,43.0,20.8,30.27,North,0,2.0,2.0,41,0.00,,,0.00,meteohub,2013-01-05 00:37:00,
2013-01-04 19:42:00,42.8,21.4,30.28,NW,315,2.0,4.0,42,0.00,,,0.00,meteohub,2013-01-05 00:42:00,
2013-01-04 19:47:00,42.6,21.2,30.27,North,0,11.0,11.0,42,0.00,,,0.00,meteohub,2013-01-05 00:47:00,
2013-01-04 19:52:00,42.6,21.2,30.28,NE,45,2.0,11.0,42,0.00,,,0.00,meteohub,2013-01-05 00:52:00,
2013-01-04 19:57:00,42.4,21.0,30.27,NE,45,2.0,11.0,42,0.00,,,0.00,meteohub,2013-01-05 00:57:00,
2013-01-04 20:02:00,42.1,20.1,30.28,NE,45,2.0,11.0,41,0.00,,,0.00,meteohub,2013-01-05 01:02:00,
2013-01-04 20:08:00,41.9,19.9,30.28,East,90,2.0,5.0,41,0.00,,,0.00,meteohub,2013-01-05 01:08:00,
2013-01-04 20:14:00,41.5,20.1,30.29,NE,45,4.0,5.0,42,0.00,,,0.00,meteohub,2013-01-05 01:14:00,
2013-01-04 20:20:00,41.5,19.6,30.29,North,0,4.0,4.0,41,0.00,,,0.00,meteohub,2013-01-05 01:20:00,
2013-01-04 20:26:00,40.8,19.6,30.29,East,90,2.0,4.0,42,0.00,,,0.00,meteohub,2013-01-05 01:26:00,
2013-01-04 20:32:00,40.8,19.6,30.30,North,0,6.0,6.0,42,0.00,,,0.00,meteohub,2013-01-05 01:32:00,
2013-01-04 20:37:00,40.6,19.4,30.30,NNE,23,3.0,6.0,42,0.00,,,0.00,meteohub,2013-01-05 01:37:00,
2013-01-04 20:42:00,40.3,19.0,30.31,SE,135,2.0,7.0,42,0.00,,,0.00,meteohub,2013-01-05 01:42:00,
2013-01-04 20:47:00,40.1,18.9,30.30,NE,45,2.0,7.0,42,0.00,,,0.00,meteohub,2013-01-05 01:47:00,
2013-01-04 20:52:00,40.1,18.9,30.30,North,0,4.0,8.0,42,0.00,,,0.00,meteohub,2013-01-05 01:52:00,
2013-01-04 20:57:00,39.9,18.7,30.31,North,0,2.0,8.0,42,0.00,,,0.00,meteohub,2013-01-05 01:57:00,
2013-01-04 21:02:00,39.6,18.9,30.31,North,0,4.0,8.0,43,0.00,,,0.00,meteohub,2013-01-05 02:02:00,
2013-01-04 21:07:00,39.4,18.7,30.31,NE,45,3.0,11.0,43,0.00,,,0.00,meteohub,2013-01-05 02:07:00,
2013-01-04 21:12:00,39.2,18.5,30.31,NNW,338,6.0,11.0,43,0.00,,,0.00,meteohub,2013-01-05 02:12:00,
2013-01-04 21:17:00,39.2,18.5,30.31,NE,45,2.0,11.0,43,0.00,,,0.00,meteohub,2013-01-05 02:17:00,
2013-01-04 21:23:00,38.8,18.9,30.30,North,0,5.0,11.0,44,0.00,,,0.00,meteohub,2013-01-05 02:23:00,
2013-01-04 21:29:00,38.8,18.9,30.31,NW,315,4.0,11.0,44,0.00,,,0.00,meteohub,2013-01-05 02:29:00,
2013-01-04 21:35:00,38.3,18.9,30.31,NW,315,2.0,10.0,45,0.00,,,0.00,meteohub,2013-01-05 02:35:00,
2013-01-04 21:42:00,37.9,19.0,30.31,SW,225,4.0,10.0,46,0.00,,,0.00,meteohub,2013-01-05 02:42:00,
2013-01-04 21:47:00,37.8,18.9,30.31,North,0,4.0,4.0,46,0.00,,,0.00,meteohub,2013-01-05 02:47:00,
2013-01-04 21:52:00,37.8,19.4,30.31,NE,45,3.0,6.0,47,0.00,,,0.00,meteohub,2013-01-05 02:52:00,
2013-01-04 21:57:00,37.6,19.2,30.32,North,0,4.0,6.0,47,0.00,,,0.00,meteohub,2013-01-05 02:57:00,
2013-01-04 22:03:00,37.6,19.2,30.31,NE,45,2.0,7.0,47,0.00,,,0.00,meteohub,2013-01-05 03:03:00,
2013-01-04 22:09:00,37.4,19.6,30.31,NW,315,4.0,7.0,48,0.00,,,0.00,meteohub,2013-01-05 03:09:00,
2013-01-04 22:15:00,37.0,19.2,30.31,North,0,2.0,8.0,48,0.00,,,0.00,meteohub,2013-01-05 03:15:00,
2013-01-04 22:21:00,36.7,19.4,30.31,NE,45,3.0,8.0,49,0.00,,,0.00,meteohub,2013-01-05 03:21:00,
2013-01-04 22:27:00,36.5,19.2,30.31,SE,135,2.0,4.0,49,0.00,,,0.00,meteohub,2013-01-05 03:27:00,
2013-01-04 22:32:00,36.5,19.2,30.31,NE,45,2.0,4.0,49,0.00,,,0.00,meteohub,2013-01-05 03:32:00,
2013-01-04 22:37:00,36.3,19.0,30.31,East,90,2.0,8.0,49,0.00,,,0.00,meteohub,2013-01-05 03:37:00,
2013-01-04 22:42:00,36.1,19.2,30.31,South,180,2.0,8.0,50,0.00,,,0.00,meteohub,2013-01-05 03:42:00,
2013-01-04 22:48:00,35.8,19.4,30.31,North,0,3.0,8.0,51,0.00,,,0.00,meteohub,2013-01-05 03:48:00,
2013-01-04 22:54:00,35.8,19.4,30.31,NE,45,2.0,4.0,51,0.00,,,0.00,meteohub,2013-01-05 03:54:00,
2013-01-04 23:02:00,35.6,19.8,30.31,South,180,2.0,8.0,52,0.00,,,0.00,meteohub,2013-01-05 04:02:00,
2013-01-04 23:07:00,35.4,19.6,30.31,South,180,2.0,8.0,52,0.00,,,0.00,meteohub,2013-01-05 04:07:00,
2013-01-04 23:12:00,34.7,20.7,30.31,South,180,2.0,3.0,56,0.00,,,0.00,meteohub,2013-01-05 04:12:00,
2013-01-04 23:17:00,34.2,20.8,30.31,South,180,2.0,3.0,58,0.00,,,0.00,meteohub,2013-01-05 04:17:00,
2013-01-04 23:22:00,32.9,20.1,30.31,South,180,0.0,2.0,59,0.00,,,0.00,meteohub,2013-01-05 04:22:00,
2013-01-04 23:27:00,32.2,20.3,30.31,West,270,1.0,2.0,61,0.00,,,0.00,meteohub,2013-01-05 04:27:00,
2013-01-04 23:32:00,31.6,20.5,30.31,West,270,2.0,2.0,63,0.00,,,0.00,meteohub,2013-01-05 04:32:00,
2013-01-04 23:37:00,30.6,20.5,30.32,West,270,2.0,2.0,66,0.00,,,0.00,meteohub,2013-01-05 04:37:00,
2013-01-04 23:42:00,29.7,20.1,30.31,West,270,2.0,2.0,67,0.00,,,0.00,meteohub,2013-01-05 04:42:00,
2013-01-04 23:47:00,29.3,20.1,30.31,West,270,2.0,2.0,68,0.00,,,0.00,meteohub,2013-01-05 04:47:00,
2013-01-04 23:52:00,28.8,19.9,30.31,West,270,1.0,2.0,69,0.00,,,0.00,meteohub,2013-01-05 04:52:00,
2013-01-04 23:57:00,28.6,20.3,30.31,West,270,2.0,2.0,71,0.00,,,0.00,meteohub,2013-01-05 04:57:00,